sensor_id;sensor_type;location;lat;lon;timestamp;temperature;humidity
64937;SHT30;51452;47.698;19.050;2023-10-31T00:01:27;16.01;68.00
64937;SHT30;51452;47.698;19.050;2023-10-31T00:03:52;16.00;68.05
64937;SHT30;51452;47.698;19.050;2023-10-31T00:06:18;16.00;67.84
64937;SHT30;51452;47.698;19.050;2023-10-31T00:08:43;15.98;67.91
64937;SHT30;51452;47.698;19.050;2023-10-31T00:11:08;16.00;67.82
64937;SHT30;51452;47.698;19.050;2023-10-31T00:13:34;15.95;67.72
64937;SHT30;51452;47.698;19.050;2023-10-31T00:15:59;15.98;67.95
64937;SHT30;51452;47.698;19.050;2023-10-31T00:18:25;15.95;68.13
64937;SHT30;51452;47.698;19.050;2023-10-31T00:20:50;15.93;68.03
64937;SHT30;51452;47.698;19.050;2023-10-31T00:23:15;15.91;68.37
64937;SHT30;51452;47.698;19.050;2023-10-31T00:25:41;15.93;68.08
64937;SHT30;51452;47.698;19.050;2023-10-31T00:28:06;15.93;68.15
64937;SHT30;51452;47.698;19.050;2023-10-31T00:30:31;15.90;68.11
64937;SHT30;51452;47.698;19.050;2023-10-31T00:32:57;15.87;68.08
64937;SHT30;51452;47.698;19.050;2023-10-31T00:35:22;15.83;67.96
64937;SHT30;51452;47.698;19.050;2023-10-31T00:37:47;15.73;67.41
64937;SHT30;51452;47.698;19.050;2023-10-31T00:40:13;15.78;67.76
64937;SHT30;51452;47.698;19.050;2023-10-31T00:42:39;15.80;67.63
64937;SHT30;51452;47.698;19.050;2023-10-31T00:45:07;15.77;67.65
64937;SHT30;51452;47.698;19.050;2023-10-31T00:47:33;15.80;67.53
64937;SHT30;51452;47.698;19.050;2023-10-31T00:49:58;15.78;67.75
64937;SHT30;51452;47.698;19.050;2023-10-31T00:52:23;15.77;66.93
64937;SHT30;51452;47.698;19.050;2023-10-31T00:54:49;15.77;67.05
64937;SHT30;51452;47.698;19.050;2023-10-31T00:57:14;15.75;66.94
64937;SHT30;51452;47.698;19.050;2023-10-31T00:59:39;15.74;66.89
64937;SHT30;51452;47.698;19.050;2023-10-31T01:02:05;15.77;67.02
64937;SHT30;51452;47.698;19.050;2023-10-31T01:04:31;15.80;67.08
64937;SHT30;51452;47.698;19.050;2023-10-31T01:06:56;15.77;67.17
64937;SHT30;51452;47.698;19.050;2023-10-31T01:09:22;15.75;66.88
64937;SHT30;51452;47.698;19.050;2023-10-31T01:11:47;15.77;66.74
64937;SHT30;51452;47.698;19.050;2023-10-31T01:14:13;15.80;67.15
64937;SHT30;51452;47.698;19.050;2023-10-31T01:16:39;15.81;67.46
64937;SHT30;51452;47.698;19.050;2023-10-31T01:19:05;15.77;67.24
64937;SHT30;51452;47.698;19.050;2023-10-31T01:21:31;15.74;66.76
64937;SHT30;51452;47.698;19.050;2023-10-31T01:23:57;15.68;66.69
64937;SHT30;51452;47.698;19.050;2023-10-31T01:26:23;15.71;66.94
64937;SHT30;51452;47.698;19.050;2023-10-31T01:28:48;15.74;66.99
64937;SHT30;51452;47.698;19.050;2023-10-31T01:31:13;15.75;67.25
64937;SHT30;51452;47.698;19.050;2023-10-31T01:33:39;15.74;66.74
64937;SHT30;51452;47.698;19.050;2023-10-31T01:36:04;15.77;66.62
64937;SHT30;51452;47.698;19.050;2023-10-31T01:38:30;15.78;66.36
64937;SHT30;51452;47.698;19.050;2023-10-31T01:40:55;15.75;66.40
64937;SHT30;51452;47.698;19.050;2023-10-31T01:43:35;15.74;65.81
64937;SHT30;51452;47.698;19.050;2023-10-31T01:46:01;15.80;66.09
64937;SHT30;51452;47.698;19.050;2023-10-31T01:48:30;15.81;66.20
64937;SHT30;51452;47.698;19.050;2023-10-31T01:50:56;15.81;66.46
64937;SHT30;51452;47.698;19.050;2023-10-31T01:53:24;15.83;66.48
64937;SHT30;51452;47.698;19.050;2023-10-31T01:55:51;15.81;66.70
64937;SHT30;51452;47.698;19.050;2023-10-31T01:58:18;15.80;66.05
64937;SHT30;51452;47.698;19.050;2023-10-31T02:00:46;15.71;64.10
64937;SHT30;51452;47.698;19.050;2023-10-31T02:03:12;15.84;65.69
64937;SHT30;51452;47.698;19.050;2023-10-31T02:05:38;15.84;66.60
64937;SHT30;51452;47.698;19.050;2023-10-31T02:08:05;15.81;66.21
64937;SHT30;51452;47.698;19.050;2023-10-31T02:10:33;15.80;65.71
64937;SHT30;51452;47.698;19.050;2023-10-31T02:12:58;15.85;66.07
64937;SHT30;51452;47.698;19.050;2023-10-31T02:15:34;15.81;66.09
64937;SHT30;51452;47.698;19.050;2023-10-31T02:18:00;15.85;66.47
64937;SHT30;51452;47.698;19.050;2023-10-31T02:20:25;15.85;65.89
64937;SHT30;51452;47.698;19.050;2023-10-31T02:22:50;15.80;65.37
64937;SHT30;51452;47.698;19.050;2023-10-31T02:25:17;15.83;65.44
64937;SHT30;51452;47.698;19.050;2023-10-31T02:27:43;15.84;65.22
64937;SHT30;51452;47.698;19.050;2023-10-31T02:30:08;15.84;64.78
64937;SHT30;51452;47.698;19.050;2023-10-31T02:32:34;15.87;65.25
64937;SHT30;51452;47.698;19.050;2023-10-31T02:34:59;15.91;65.11
64937;SHT30;51452;47.698;19.050;2023-10-31T02:37:25;15.84;64.94
64937;SHT30;51452;47.698;19.050;2023-10-31T02:39:50;15.83;64.79
64937;SHT30;51452;47.698;19.050;2023-10-31T02:42:15;15.85;64.64
64937;SHT30;51452;47.698;19.050;2023-10-31T02:44:41;15.87;63.93
64937;SHT30;51452;47.698;19.050;2023-10-31T02:47:06;15.94;65.18
64937;SHT30;51452;47.698;19.050;2023-10-31T02:49:31;15.94;65.00
64937;SHT30;51452;47.698;19.050;2023-10-31T02:51:57;15.95;65.94
64937;SHT30;51452;47.698;19.050;2023-10-31T02:54:22;15.94;65.48
64937;SHT30;51452;47.698;19.050;2023-10-31T02:56:48;15.85;63.89
64937;SHT30;51452;47.698;19.050;2023-10-31T02:59:13;15.87;63.91
64937;SHT30;51452;47.698;19.050;2023-10-31T03:01:38;15.91;64.36
64937;SHT30;51452;47.698;19.050;2023-10-31T03:04:04;15.91;64.18
64937;SHT30;51452;47.698;19.050;2023-10-31T03:06:29;15.91;64.60
64937;SHT30;51452;47.698;19.050;2023-10-31T03:08:55;15.94;64.32
64937;SHT30;51452;47.698;19.050;2023-10-31T03:11:22;15.87;64.65
64937;SHT30;51452;47.698;19.050;2023-10-31T03:13:49;15.90;64.66
64937;SHT30;51452;47.698;19.050;2023-10-31T03:16:14;15.94;64.25
64937;SHT30;51452;47.698;19.050;2023-10-31T03:18:39;15.93;64.43
64937;SHT30;51452;47.698;19.050;2023-10-31T03:21:05;15.85;64.22
64937;SHT30;51452;47.698;19.050;2023-10-31T03:23:30;15.88;64.85
64937;SHT30;51452;47.698;19.050;2023-10-31T03:25:55;15.91;64.54
64937;SHT30;51452;47.698;19.050;2023-10-31T03:28:21;15.83;63.26
64937;SHT30;51452;47.698;19.050;2023-10-31T03:30:49;15.90;64.77
64937;SHT30;51452;47.698;19.050;2023-10-31T03:33:15;15.94;65.58
64937;SHT30;51452;47.698;19.050;2023-10-31T03:35:42;15.93;66.96
64937;SHT30;51452;47.698;19.050;2023-10-31T03:38:07;15.85;67.09
64937;SHT30;51452;47.698;19.050;2023-10-31T03:40:32;15.84;68.03
64937;SHT30;51452;47.698;19.050;2023-10-31T03:42:58;15.73;67.62
64937;SHT30;51452;47.698;19.050;2023-10-31T03:45:23;15.70;68.11
64937;SHT30;51452;47.698;19.050;2023-10-31T03:47:49;15.68;67.06
64937;SHT30;51452;47.698;19.050;2023-10-31T03:50:14;15.74;66.94
64937;SHT30;51452;47.698;19.050;2023-10-31T03:52:39;15.71;67.75
64937;SHT30;51452;47.698;19.050;2023-10-31T03:55:05;15.73;67.88
64937;SHT30;51452;47.698;19.050;2023-10-31T03:57:31;15.68;67.99
64937;SHT30;51452;47.698;19.050;2023-10-31T03:59:56;15.67;68.82
64937;SHT30;51452;47.698;19.050;2023-10-31T04:02:21;15.66;69.91
64937;SHT30;51452;47.698;19.050;2023-10-31T04:04:47;15.68;70.52
64937;SHT30;51452;47.698;19.050;2023-10-31T04:07:12;15.61;71.30
64937;SHT30;51452;47.698;19.050;2023-10-31T04:09:38;15.53;71.55
64937;SHT30;51452;47.698;19.050;2023-10-31T04:12:03;15.44;69.08
64937;SHT30;51452;47.698;19.050;2023-10-31T04:14:29;15.43;70.66
64937;SHT30;51452;47.698;19.050;2023-10-31T04:16:54;15.35;70.33
64937;SHT30;51452;47.698;19.050;2023-10-31T04:19:19;15.22;69.24
64937;SHT30;51452;47.698;19.050;2023-10-31T04:21:45;15.29;70.69
64937;SHT30;51452;47.698;19.050;2023-10-31T04:24:10;15.20;70.74
64937;SHT30;51452;47.698;19.050;2023-10-31T04:26:35;15.15;69.95
64937;SHT30;51452;47.698;19.050;2023-10-31T04:29:01;15.10;71.06
64937;SHT30;51452;47.698;19.050;2023-10-31T04:31:26;15.18;70.40
64937;SHT30;51452;47.698;19.050;2023-10-31T04:33:51;15.20;69.91
64937;SHT30;51452;47.698;19.050;2023-10-31T04:36:17;15.20;71.44
64937;SHT30;51452;47.698;19.050;2023-10-31T04:38:42;15.19;72.33
64937;SHT30;51452;47.698;19.050;2023-10-31T04:41:08;15.15;71.31
64937;SHT30;51452;47.698;19.050;2023-10-31T04:43:34;15.15;71.33
64937;SHT30;51452;47.698;19.050;2023-10-31T04:46:00;15.07;70.48
64937;SHT30;51452;47.698;19.050;2023-10-31T04:48:25;15.16;71.95
64937;SHT30;51452;47.698;19.050;2023-10-31T04:50:51;15.13;70.74
64937;SHT30;51452;47.698;19.050;2023-10-31T04:53:16;15.15;70.37
64937;SHT30;51452;47.698;19.050;2023-10-31T04:55:42;15.16;71.94
64937;SHT30;51452;47.698;19.050;2023-10-31T04:58:07;15.07;72.26
64937;SHT30;51452;47.698;19.050;2023-10-31T05:00:33;15.12;72.54
64937;SHT30;51452;47.698;19.050;2023-10-31T05:02:58;15.03;71.62
64937;SHT30;51452;47.698;19.050;2023-10-31T05:05:25;15.07;72.24
64937;SHT30;51452;47.698;19.050;2023-10-31T05:07:50;15.03;72.28
64937;SHT30;51452;47.698;19.050;2023-10-31T05:10:15;15.06;72.31
64937;SHT30;51452;47.698;19.050;2023-10-31T05:12:41;14.92;70.50
64937;SHT30;51452;47.698;19.050;2023-10-31T05:15:07;14.99;70.20
64937;SHT30;51452;47.698;19.050;2023-10-31T05:17:32;14.96;69.31
64937;SHT30;51452;47.698;19.050;2023-10-31T05:19:58;15.05;69.77
64937;SHT30;51452;47.698;19.050;2023-10-31T05:22:23;15.09;70.14
64937;SHT30;51452;47.698;19.050;2023-10-31T05:24:49;15.03;67.64
64937;SHT30;51452;47.698;19.050;2023-10-31T05:27:14;15.10;67.70
64937;SHT30;51452;47.698;19.050;2023-10-31T05:29:39;15.12;68.23
64937;SHT30;51452;47.698;19.050;2023-10-31T05:32:05;15.07;68.69
64937;SHT30;51452;47.698;19.050;2023-10-31T05:34:30;15.09;68.63
64937;SHT30;51452;47.698;19.050;2023-10-31T05:36:56;15.10;68.66
64937;SHT30;51452;47.698;19.050;2023-10-31T05:39:21;15.15;68.69
64937;SHT30;51452;47.698;19.050;2023-10-31T05:41:46;15.16;67.82
64937;SHT30;51452;47.698;19.050;2023-10-31T05:44:12;15.16;70.33
64937;SHT30;51452;47.698;19.050;2023-10-31T05:46:40;15.22;72.09
64937;SHT30;51452;47.698;19.050;2023-10-31T05:49:07;15.12;68.58
64937;SHT30;51452;47.698;19.050;2023-10-31T05:51:33;15.00;69.23
64937;SHT30;51452;47.698;19.050;2023-10-31T05:53:59;15.05;67.99
64937;SHT30;51452;47.698;19.050;2023-10-31T05:56:24;15.09;68.42
64937;SHT30;51452;47.698;19.050;2023-10-31T05:58:50;15.13;69.86
64937;SHT30;51452;47.698;19.050;2023-10-31T06:01:15;15.07;64.35
64937;SHT30;51452;47.698;19.050;2023-10-31T06:03:41;15.16;66.63
64937;SHT30;51452;47.698;19.050;2023-10-31T06:06:08;15.22;67.65
64937;SHT30;51452;47.698;19.050;2023-10-31T06:08:34;15.23;67.53
64937;SHT30;51452;47.698;19.050;2023-10-31T06:11:00;15.29;69.92
64937;SHT30;51452;47.698;19.050;2023-10-31T06:13:25;15.27;66.25
64937;SHT30;51452;47.698;19.050;2023-10-31T06:15:53;15.19;67.05
64937;SHT30;51452;47.698;19.050;2023-10-31T06:18:19;15.27;67.95
64937;SHT30;51452;47.698;19.050;2023-10-31T06:20:44;15.30;68.80
64937;SHT30;51452;47.698;19.050;2023-10-31T06:23:10;15.33;68.89
64937;SHT30;51452;47.698;19.050;2023-10-31T06:25:35;15.33;69.76
64937;SHT30;51452;47.698;19.050;2023-10-31T06:28:01;15.35;69.65
64937;SHT30;51452;47.698;19.050;2023-10-31T06:30:26;15.36;69.65
64937;SHT30;51452;47.698;19.050;2023-10-31T06:32:53;15.33;66.21
64937;SHT30;51452;47.698;19.050;2023-10-31T06:35:18;15.42;68.36
64937;SHT30;51452;47.698;19.050;2023-10-31T06:37:44;15.37;68.93
64937;SHT30;51452;47.698;19.050;2023-10-31T06:40:09;15.36;68.43
64937;SHT30;51452;47.698;19.050;2023-10-31T06:42:35;15.23;66.33
64937;SHT30;51452;47.698;19.050;2023-10-31T06:45:01;15.37;66.49
64937;SHT30;51452;47.698;19.050;2023-10-31T06:47:27;15.44;68.05
64937;SHT30;51452;47.698;19.050;2023-10-31T06:49:52;15.44;67.17
64937;SHT30;51452;47.698;19.050;2023-10-31T06:52:17;15.49;67.90
64937;SHT30;51452;47.698;19.050;2023-10-31T06:54:43;15.50;66.47
64937;SHT30;51452;47.698;19.050;2023-10-31T06:57:08;15.54;67.04
64937;SHT30;51452;47.698;19.050;2023-10-31T06:59:34;15.53;67.77
64937;SHT30;51452;47.698;19.050;2023-10-31T07:02:00;15.54;67.49
64937;SHT30;51452;47.698;19.050;2023-10-31T07:04:25;15.57;64.68
64937;SHT30;51452;47.698;19.050;2023-10-31T07:06:51;15.61;66.52
64937;SHT30;51452;47.698;19.050;2023-10-31T07:09:25;15.64;65.71
64937;SHT30;51452;47.698;19.050;2023-10-31T07:11:51;15.67;66.72
64937;SHT30;51452;47.698;19.050;2023-10-31T07:14:16;15.70;68.13
64937;SHT30;51452;47.698;19.050;2023-10-31T07:16:42;15.70;68.25
64937;SHT30;51452;47.698;19.050;2023-10-31T07:19:10;15.75;68.42
64937;SHT30;51452;47.698;19.050;2023-10-31T07:21:35;15.71;68.61
64937;SHT30;51452;47.698;19.050;2023-10-31T07:24:00;15.66;65.22
64937;SHT30;51452;47.698;19.050;2023-10-31T07:26:26;15.73;68.24
64937;SHT30;51452;47.698;19.050;2023-10-31T07:28:52;15.71;66.06
64937;SHT30;51452;47.698;19.050;2023-10-31T07:31:18;15.68;65.82
64937;SHT30;51452;47.698;19.050;2023-10-31T07:33:44;15.74;67.29
64937;SHT30;51452;47.698;19.050;2023-10-31T07:36:10;15.80;67.02
64937;SHT30;51452;47.698;19.050;2023-10-31T07:38:36;15.81;62.64
64937;SHT30;51452;47.698;19.050;2023-10-31T07:41:01;15.84;63.45
64937;SHT30;51452;47.698;19.050;2023-10-31T07:43:27;15.88;64.17
64937;SHT30;51452;47.698;19.050;2023-10-31T07:45:52;15.95;65.57
64937;SHT30;51452;47.698;19.050;2023-10-31T07:48:18;15.98;66.59
64937;SHT30;51452;47.698;19.050;2023-10-31T07:50:43;16.00;65.77
64937;SHT30;51452;47.698;19.050;2023-10-31T07:53:08;16.04;65.48
64937;SHT30;51452;47.698;19.050;2023-10-31T07:55:34;16.12;66.71
64937;SHT30;51452;47.698;19.050;2023-10-31T07:57:59;16.19;67.69
64937;SHT30;51452;47.698;19.050;2023-10-31T08:00:24;16.22;66.05
64937;SHT30;51452;47.698;19.050;2023-10-31T08:02:50;16.22;66.13
64937;SHT30;51452;47.698;19.050;2023-10-31T08:05:15;16.33;64.29
64937;SHT30;51452;47.698;19.050;2023-10-31T08:07:41;16.38;65.82
64937;SHT30;51452;47.698;19.050;2023-10-31T08:10:06;16.49;66.44
64937;SHT30;51452;47.698;19.050;2023-10-31T08:12:32;16.52;64.41
64937;SHT30;51452;47.698;19.050;2023-10-31T08:14:57;16.55;61.62
64937;SHT30;51452;47.698;19.050;2023-10-31T08:17:24;16.62;62.03
64937;SHT30;51452;47.698;19.050;2023-10-31T08:19:49;16.60;62.75
64937;SHT30;51452;47.698;19.050;2023-10-31T08:22:14;16.49;61.72
64937;SHT30;51452;47.698;19.050;2023-10-31T08:24:40;16.49;63.13
64937;SHT30;51452;47.698;19.050;2023-10-31T08:27:05;16.44;61.67
64937;SHT30;51452;47.698;19.050;2023-10-31T08:29:31;16.46;60.93
64937;SHT30;51452;47.698;19.050;2023-10-31T08:31:56;16.49;60.74
64937;SHT30;51452;47.698;19.050;2023-10-31T08:34:22;16.48;61.05
64937;SHT30;51452;47.698;19.050;2023-10-31T08:36:47;16.60;61.24
64937;SHT30;51452;47.698;19.050;2023-10-31T08:39:12;16.44;59.78
64937;SHT30;51452;47.698;19.050;2023-10-31T08:41:52;16.42;59.21
64937;SHT30;51452;47.698;19.050;2023-10-31T08:44:17;16.49;59.62
64937;SHT30;51452;47.698;19.050;2023-10-31T08:46:43;16.55;60.52
64937;SHT30;51452;47.698;19.050;2023-10-31T08:49:08;16.41;61.11
64937;SHT30;51452;47.698;19.050;2023-10-31T08:51:33;16.55;61.21
64937;SHT30;51452;47.698;19.050;2023-10-31T08:53:59;16.49;59.61
64937;SHT30;51452;47.698;19.050;2023-10-31T08:56:24;16.56;60.93
64937;SHT30;51452;47.698;19.050;2023-10-31T08:58:52;16.60;60.19
64937;SHT30;51452;47.698;19.050;2023-10-31T09:01:17;16.69;62.44
64937;SHT30;51452;47.698;19.050;2023-10-31T09:03:43;16.83;60.51
64937;SHT30;51452;47.698;19.050;2023-10-31T09:06:09;16.90;61.94
64937;SHT30;51452;47.698;19.050;2023-10-31T09:08:35;16.93;61.24
64937;SHT30;51452;47.698;19.050;2023-10-31T09:11:03;17.04;60.74
64937;SHT30;51452;47.698;19.050;2023-10-31T09:13:29;17.10;61.18
64937;SHT30;51452;47.698;19.050;2023-10-31T09:15:54;17.18;59.53
64937;SHT30;51452;47.698;19.050;2023-10-31T09:18:19;17.17;62.85
64937;SHT30;51452;47.698;19.050;2023-10-31T09:20:45;17.27;60.61
64937;SHT30;51452;47.698;19.050;2023-10-31T09:23:11;17.31;59.29
64937;SHT30;51452;47.698;19.050;2023-10-31T09:25:36;17.21;60.02
64937;SHT30;51452;47.698;19.050;2023-10-31T09:28:02;17.27;60.71
64937;SHT30;51452;47.698;19.050;2023-10-31T09:30:27;17.34;59.87
64937;SHT30;51452;47.698;19.050;2023-10-31T09:32:52;17.39;59.01
64937;SHT30;51452;47.698;19.050;2023-10-31T09:35:18;17.39;60.87
64937;SHT30;51452;47.698;19.050;2023-10-31T09:37:43;17.44;59.00
64937;SHT30;51452;47.698;19.050;2023-10-31T09:40:10;17.48;59.81
64937;SHT30;51452;47.698;19.050;2023-10-31T09:42:36;17.51;57.49
64937;SHT30;51452;47.698;19.050;2023-10-31T09:45:02;17.58;58.82
64937;SHT30;51452;47.698;19.050;2023-10-31T09:47:30;17.58;59.39
64937;SHT30;51452;47.698;19.050;2023-10-31T09:49:55;17.66;58.26
64937;SHT30;51452;47.698;19.050;2023-10-31T09:52:22;17.74;59.20
64937;SHT30;51452;47.698;19.050;2023-10-31T09:54:49;17.75;60.59
64937;SHT30;51452;47.698;19.050;2023-10-31T09:57:15;17.72;58.03
64937;SHT30;51452;47.698;19.050;2023-10-31T09:59:42;17.75;58.30
64937;SHT30;51452;47.698;19.050;2023-10-31T10:02:08;17.64;57.04
64937;SHT30;51452;47.698;19.050;2023-10-31T10:04:33;17.64;55.07
64937;SHT30;51452;47.698;19.050;2023-10-31T10:07:00;17.69;57.71
64937;SHT30;51452;47.698;19.050;2023-10-31T10:09:27;17.74;56.37
64937;SHT30;51452;47.698;19.050;2023-10-31T10:11:53;17.78;57.43
64937;SHT30;51452;47.698;19.050;2023-10-31T10:14:18;17.81;57.87
64937;SHT30;51452;47.698;19.050;2023-10-31T10:16:44;17.78;59.52
64937;SHT30;51452;47.698;19.050;2023-10-31T10:19:17;17.72;60.07
64937;SHT30;51452;47.698;19.050;2023-10-31T10:21:55;17.69;60.84
64937;SHT30;51452;47.698;19.050;2023-10-31T10:24:21;17.72;60.35
64937;SHT30;51452;47.698;19.050;2023-10-31T10:26:47;17.79;59.08
64937;SHT30;51452;47.698;19.050;2023-10-31T10:29:14;17.89;58.59
64937;SHT30;51452;47.698;19.050;2023-10-31T10:31:39;17.82;58.79
64937;SHT30;51452;47.698;19.050;2023-10-31T10:34:06;17.90;57.85
64937;SHT30;51452;47.698;19.050;2023-10-31T10:36:32;17.90;56.66
64937;SHT30;51452;47.698;19.050;2023-10-31T10:38:59;17.99;58.01
64937;SHT30;51452;47.698;19.050;2023-10-31T10:41:26;18.13;58.73
64937;SHT30;51452;47.698;19.050;2023-10-31T10:44:05;18.18;58.26
64937;SHT30;51452;47.698;19.050;2023-10-31T10:46:35;18.33;57.93
64937;SHT30;51452;47.698;19.050;2023-10-31T10:49:06;18.29;57.43
64937;SHT30;51452;47.698;19.050;2023-10-31T10:51:56;18.32;56.51
64937;SHT30;51452;47.698;19.050;2023-10-31T10:54:32;18.26;56.06
64937;SHT30;51452;47.698;19.050;2023-10-31T11:00:08;18.05;61.56
64937;SHT30;51452;47.698;19.050;2023-10-31T11:02:36;18.00;61.16
64937;SHT30;51452;47.698;19.050;2023-10-31T11:05:04;17.93;62.58
64937;SHT30;51452;47.698;19.050;2023-10-31T11:07:30;17.85;61.31
64937;SHT30;51452;47.698;19.050;2023-10-31T11:09:58;17.81;55.58
64937;SHT30;51452;47.698;19.050;2023-10-31T11:12:27;17.78;59.03
64937;SHT30;51452;47.698;19.050;2023-10-31T11:14:53;17.71;60.50
64937;SHT30;51452;47.698;19.050;2023-10-31T11:17:23;17.74;58.08
64937;SHT30;51452;47.698;19.050;2023-10-31T11:19:51;17.75;58.33
64937;SHT30;51452;47.698;19.050;2023-10-31T11:22:17;17.74;59.32
64937;SHT30;51452;47.698;19.050;2023-10-31T11:24:43;17.74;58.39
64937;SHT30;51452;47.698;19.050;2023-10-31T11:27:08;17.68;58.47
64937;SHT30;51452;47.698;19.050;2023-10-31T11:29:36;17.68;58.05
64937;SHT30;51452;47.698;19.050;2023-10-31T11:32:02;17.72;60.45
64937;SHT30;51452;47.698;19.050;2023-10-31T11:34:29;17.71;59.87
64937;SHT30;51452;47.698;19.050;2023-10-31T11:37:18;17.62;61.71
64937;SHT30;51452;47.698;19.050;2023-10-31T11:42:38;17.62;62.30
64937;SHT30;51452;47.698;19.050;2023-10-31T11:45:04;17.47;66.64
64937;SHT30;51452;47.698;19.050;2023-10-31T11:47:49;17.34;67.62
64937;SHT30;51452;47.698;19.050;2023-10-31T11:50:15;17.21;69.85
64937;SHT30;51452;47.698;19.050;2023-10-31T11:52:41;17.04;68.80
64937;SHT30;51452;47.698;19.050;2023-10-31T11:55:11;16.97;69.00
64937;SHT30;51452;47.698;19.050;2023-10-31T11:57:36;16.88;68.73
64937;SHT30;51452;47.698;19.050;2023-10-31T12:00:03;16.94;68.47
64937;SHT30;51452;47.698;19.050;2023-10-31T12:02:32;16.83;69.36
64937;SHT30;51452;47.698;19.050;2023-10-31T12:05:13;16.81;70.54
64937;SHT30;51452;47.698;19.050;2023-10-31T12:07:46;16.67;70.63
64937;SHT30;51452;47.698;19.050;2023-10-31T12:10:12;16.73;68.32
64937;SHT30;51452;47.698;19.050;2023-10-31T12:12:38;16.69;69.47
64937;SHT30;51452;47.698;19.050;2023-10-31T12:15:07;16.63;70.72
64937;SHT30;51452;47.698;19.050;2023-10-31T12:17:34;16.69;69.73
64937;SHT30;51452;47.698;19.050;2023-10-31T12:20:06;16.63;68.55
64937;SHT30;51452;47.698;19.050;2023-10-31T12:22:33;16.56;69.23
64937;SHT30;51452;47.698;19.050;2023-10-31T12:27:44;16.19;76.11
64937;SHT30;51452;47.698;19.050;2023-10-31T12:30:11;15.68;82.25
64937;SHT30;51452;47.698;19.050;2023-10-31T12:32:38;14.67;91.73
64937;SHT30;51452;47.698;19.050;2023-10-31T12:35:04;14.42;92.47
64937;SHT30;51452;47.698;19.050;2023-10-31T12:37:30;14.18;91.94
64937;SHT30;51452;47.698;19.050;2023-10-31T12:39:57;14.18;93.43
64937;SHT30;51452;47.698;19.050;2023-10-31T12:42:23;14.25;93.69
64937;SHT30;51452;47.698;19.050;2023-10-31T12:44:54;14.42;93.91
64937;SHT30;51452;47.698;19.050;2023-10-31T12:47:23;14.34;93.95
64937;SHT30;51452;47.698;19.050;2023-10-31T12:50:08;14.25;93.97
64937;SHT30;51452;47.698;19.050;2023-10-31T12:52:51;14.31;94.16
64937;SHT30;51452;47.698;19.050;2023-10-31T12:55:18;14.41;94.10
64937;SHT30;51452;47.698;19.050;2023-10-31T12:57:44;14.33;93.88
64937;SHT30;51452;47.698;19.050;2023-10-31T13:00:12;14.20;93.68
64937;SHT30;51452;47.698;19.050;2023-10-31T13:02:39;14.30;94.29
64937;SHT30;51452;47.698;19.050;2023-10-31T13:05:15;14.27;93.85
64937;SHT30;51452;47.698;19.050;2023-10-31T13:07:50;14.30;94.20
64937;SHT30;51452;47.698;19.050;2023-10-31T13:10:21;14.34;93.83
64937;SHT30;51452;47.698;19.050;2023-10-31T13:12:48;14.35;94.12
64937;SHT30;51452;47.698;19.050;2023-10-31T13:15:14;14.42;93.72
64937;SHT30;51452;47.698;19.050;2023-10-31T13:17:40;14.40;93.67
64937;SHT30;51452;47.698;19.050;2023-10-31T13:20:08;14.47;93.52
64937;SHT30;51452;47.698;19.050;2023-10-31T13:22:35;14.57;93.38
64937;SHT30;51452;47.698;19.050;2023-10-31T13:25:01;14.64;93.33
64937;SHT30;51452;47.698;19.050;2023-10-31T13:27:30;14.64;93.00
64937;SHT30;51452;47.698;19.050;2023-10-31T13:29:56;14.64;93.13
64937;SHT30;51452;47.698;19.050;2023-10-31T13:32:21;14.61;93.21
64937;SHT30;51452;47.698;19.050;2023-10-31T13:34:46;14.54;92.67
64937;SHT30;51452;47.698;19.050;2023-10-31T13:37:13;14.51;93.20
64937;SHT30;51452;47.698;19.050;2023-10-31T13:39:38;14.58;92.72
64937;SHT30;51452;47.698;19.050;2023-10-31T13:42:04;14.49;92.66
64937;SHT30;51452;47.698;19.050;2023-10-31T13:44:29;14.41;91.92
64937;SHT30;51452;47.698;19.050;2023-10-31T13:46:55;14.31;92.23
64937;SHT30;51452;47.698;19.050;2023-10-31T13:49:20;14.14;92.27
64937;SHT30;51452;47.698;19.050;2023-10-31T13:51:46;14.04;92.03
64937;SHT30;51452;47.698;19.050;2023-10-31T13:54:13;14.03;92.52
64937;SHT30;51452;47.698;19.050;2023-10-31T13:56:38;13.91;92.30
64937;SHT30;51452;47.698;19.050;2023-10-31T13:59:04;14.00;92.91
64937;SHT30;51452;47.698;19.050;2023-10-31T14:01:29;14.00;92.57
64937;SHT30;51452;47.698;19.050;2023-10-31T14:03:55;13.87;91.92
64937;SHT30;51452;47.698;19.050;2023-10-31T14:06:20;13.82;91.66
64937;SHT30;51452;47.698;19.050;2023-10-31T14:08:45;13.91;92.40
64937;SHT30;51452;47.698;19.050;2023-10-31T14:11:11;13.97;92.68
64937;SHT30;51452;47.698;19.050;2023-10-31T14:13:37;13.94;92.62
64937;SHT30;51452;47.698;19.050;2023-10-31T14:16:03;13.89;91.74
64937;SHT30;51452;47.698;19.050;2023-10-31T14:18:29;13.75;91.96
64937;SHT30;51452;47.698;19.050;2023-10-31T14:20:54;13.73;91.92
64937;SHT30;51452;47.698;19.050;2023-10-31T14:23:20;13.51;91.81
64937;SHT30;51452;47.698;19.050;2023-10-31T14:25:45;13.41;91.36
64937;SHT30;51452;47.698;19.050;2023-10-31T14:28:11;13.21;91.74
64937;SHT30;51452;47.698;19.050;2023-10-31T14:30:36;13.08;91.63
64937;SHT30;51452;47.698;19.050;2023-10-31T14:33:02;13.11;91.47
64937;SHT30;51452;47.698;19.050;2023-10-31T14:35:27;13.10;91.74
64937;SHT30;51452;47.698;19.050;2023-10-31T14:37:52;13.01;91.34
64937;SHT30;51452;47.698;19.050;2023-10-31T14:40:18;12.98;90.88
64937;SHT30;51452;47.698;19.050;2023-10-31T14:42:43;12.97;91.15
64937;SHT30;51452;47.698;19.050;2023-10-31T14:45:09;13.08;91.69
64937;SHT30;51452;47.698;19.050;2023-10-31T14:47:34;13.22;92.09
64937;SHT30;51452;47.698;19.050;2023-10-31T14:50:00;13.22;91.26
64937;SHT30;51452;47.698;19.050;2023-10-31T14:52:25;13.29;91.72
64937;SHT30;51452;47.698;19.050;2023-10-31T14:54:51;13.16;91.42
64937;SHT30;51452;47.698;19.050;2023-10-31T14:57:16;13.29;91.80
64937;SHT30;51452;47.698;19.050;2023-10-31T14:59:42;13.35;91.63
64937;SHT30;51452;47.698;19.050;2023-10-31T15:02:07;13.29;91.25
64937;SHT30;51452;47.698;19.050;2023-10-31T15:04:33;13.42;91.56
64937;SHT30;51452;47.698;19.050;2023-10-31T15:06:58;13.25;90.86
64937;SHT30;51452;47.698;19.050;2023-10-31T15:09:23;13.36;91.77
64937;SHT30;51452;47.698;19.050;2023-10-31T15:11:49;13.42;91.83
64937;SHT30;51452;47.698;19.050;2023-10-31T15:14:16;13.45;90.67
64937;SHT30;51452;47.698;19.050;2023-10-31T15:16:41;13.45;91.25
64937;SHT30;51452;47.698;19.050;2023-10-31T15:19:07;13.31;90.79